Portada
METAR-TAF:

METAR-TAF

Aeroports :

Torí, Itàlia

latitud: 45-05-20N, longitud: 007-36-20E, altitud: 288 m

Observació

L'informe es va fer fa 7 hores i 33 minuts, a les 16:50 UTC
Vent 3 kt del Nord/Nord-Est, variant entre Nord-Oest i Est/Sud-Est
Temperatura 32°C
Humitat 49%
Pressió 1017 hPa
Visibilitat 10 km o més
sense núvols per sota de 1500 mi sense presència de cumulonimbus.

METAR: LIMA 181650Z 02003KT 320V120 CAVOK 32/20 Q1017

Hora: 02:23 (00:23 UTC)


TAF: manca

Observacions i pronòstics meteorològics de més de 4000 aeroports (METAR i TAF).

Les estacions disponibles són els punts grocs i vermells al mapa.

Posi el ratolí al punt desitjat per veure el nom de l'estació.

Feu clic per veure les observacions i els pronòstics meteorològics.

Per canviar el mapa: feu clic els botons verds amb una creu de color negre per apropar; al botó verd amb un guió per allunyar la imatge; o en les fletxes verdes per a mapes adjacents.


METAR-TAF: